Terminal Aerodrome Forecast
Issued by NWS Cleveland, OH

Home | Current Version | Previous Version | Text Only | Print | Product List | Glossary On
Versions: 1 2 3 4 5 6 7 8 9 10 11 12 13 14
000
FTUS41 KCLE 232320
TAFTOL
TAF
KTOL 232320Z 2400/2424 21012G22KT P6SM -SHRA BKN050
      TEMPO 2400/2404 BKN028
     FM240400 24013G22KT P6SM VCSH OVC050
     FM241100 22010G18KT P6SM VCSH OVC015
     FM241500 22015G25KT P6SM VCSH BKN025=

USA.gov is the U.S. government's official web portal to all federal, state and local government web resources and services.